createdAt,value
2022-10-13T00:00:06.874Z,24.02
2022-10-13T00:05:13.923Z,21.27
2022-10-13T00:10:15.755Z,26.95
2022-10-13T00:15:17.956Z,23.65
2022-10-13T00:20:19.857Z,31.58
2022-10-13T00:25:21.679Z,27.52
2022-10-13T00:30:24.296Z,30.27
2022-10-13T00:35:26.064Z,31.83
2022-10-13T00:40:27.802Z,28.35
2022-10-13T00:45:29.737Z,27.30
2022-10-13T00:50:39.484Z,27.23
2022-10-13T00:55:43.231Z,23.95
2022-10-13T01:00:50.862Z,25.30
2022-10-13T01:05:56.863Z,25.48
2022-10-13T01:11:36.077Z,25.85
2022-10-13T01:16:43.878Z,25.23
2022-10-13T01:21:54.692Z,22.70
2022-10-13T01:27:10.389Z,22.02
2022-10-13T01:32:24.261Z,18.70
2022-10-13T01:37:36.938Z,18.30
2022-10-13T01:43:08.464Z,24.65
2022-10-13T01:48:11.072Z,20.83
2022-10-13T01:53:18.217Z,24.50
2022-10-13T01:58:30.091Z,26.05
2022-10-13T02:03:51.941Z,18.50
2022-10-13T02:09:05.831Z,27.00
2022-10-13T02:14:33.718Z,22.10
2022-10-13T02:19:38.637Z,21.98
2022-10-13T02:24:40.578Z,21.67
2022-10-13T02:29:54.094Z,19.52
2022-10-13T02:34:55.844Z,21.77
2022-10-13T02:39:57.598Z,20.80
2022-10-13T02:44:59.336Z,19.27
2022-10-13T02:50:01.109Z,21.42
2022-10-13T02:55:03.892Z,25.70
2022-10-13T03:00:07.293Z,23.42
2022-10-13T03:05:10.384Z,20.55
2022-10-13T03:10:12.145Z,22.27
2022-10-13T03:15:14.133Z,22.35
2022-10-13T03:20:16.453Z,19.67
2022-10-13T03:25:18.278Z,19.95
2022-10-13T03:30:20.013Z,19.08
2022-10-13T03:35:21.923Z,21.85
2022-10-13T03:40:24.671Z,16.60
2022-10-13T03:45:26.419Z,22.13
2022-10-13T03:50:28.199Z,18.20
2022-10-13T03:55:29.952Z,20.27
2022-10-13T04:00:31.669Z,26.02
2022-10-13T04:05:34.448Z,21.77
2022-10-13T04:10:36.240Z,18.70
2022-10-13T04:15:39.435Z,20.58
2022-10-13T04:20:41.203Z,20.83
2022-10-13T04:25:42.932Z,18.27
2022-10-13T04:30:49.257Z,20.77
2022-10-13T04:35:51.380Z,23.48
2022-10-13T04:40:53.085Z,20.80
2022-10-13T04:46:04.248Z,22.67
2022-10-13T04:51:09.051Z,19.25
2022-10-13T04:56:16.569Z,20.38
2022-10-13T05:01:22.451Z,26.58
2022-10-13T05:06:27.432Z,22.80
2022-10-13T05:11:33.125Z,21.50
2022-10-13T05:16:34.918Z,24.63
2022-10-13T05:21:36.688Z,31.17
2022-10-13T05:26:38.534Z,28.20
2022-10-13T05:31:40.304Z,25.13
2022-10-13T05:36:42.296Z,30.73
2022-10-13T05:41:44.230Z,28.42
2022-10-13T05:46:48.359Z,33.25
2022-10-13T05:51:55.548Z,32.88
2022-10-13T05:57:19.698Z,31.95
2022-10-13T06:02:24.955Z,29.67
2022-10-13T06:07:26.747Z,32.17
2022-10-13T06:12:28.488Z,38.53
2022-10-13T06:17:30.256Z,35.38
2022-10-13T06:22:33.441Z,45.88
2022-10-13T06:27:35.197Z,41.63
2022-10-13T06:32:36.941Z,38.85
2022-10-13T06:37:38.678Z,38.20
2022-10-13T06:42:49.813Z,45.22
2022-10-13T06:47:54.446Z,42.67
2022-10-13T06:52:56.915Z,37.67
2022-10-13T06:57:58.638Z,38.05
2022-10-13T07:03:00.440Z,34.03
2022-10-13T07:08:02.481Z,36.15
2022-10-13T07:13:04.433Z,36.50
2022-10-13T07:18:06.797Z,34.38
2022-10-13T07:23:08.945Z,31.50
2022-10-13T07:28:10.690Z,31.00
2022-10-13T07:33:12.818Z,29.60
2022-10-13T07:38:14.584Z,39.10
2022-10-13T07:43:17.613Z,41.08
2022-10-13T07:48:19.456Z,42.35
2022-10-13T07:53:21.257Z,39.08
2022-10-13T07:58:23.096Z,37.60
2022-10-13T08:03:25.110Z,36.35
2022-10-13T08:08:27.465Z,33.28
2022-10-13T08:13:29.280Z,32.83
2022-10-13T08:18:31.445Z,33.28
2022-10-13T08:23:33.261Z,35.08
2022-10-13T08:28:35.133Z,33.40
2022-10-13T08:33:37.020Z,29.67
2022-10-13T08:38:41.047Z,32.03
2022-10-13T08:44:24.714Z,32.10
2022-10-13T08:49:10.012Z,25.23
2022-10-13T08:54:16.834Z,27.48
2022-10-13T08:59:19.047Z,28.13
2022-10-13T09:04:40.890Z,25.35
2022-10-13T09:09:43.146Z,21.70
2022-10-13T09:14:59.475Z,27.08
2022-10-13T09:20:06.390Z,23.83
2022-10-13T09:25:08.687Z,19.70
2022-10-13T09:30:46.962Z,19.42
2022-10-13T09:35:56.211Z,19.20
2022-10-13T09:41:10.168Z,20.00
2022-10-13T09:46:23.054Z,19.85
2022-10-13T09:51:33.977Z,19.08
2022-10-13T09:56:53.514Z,20.42
2022-10-13T10:01:58.548Z,19.00
2022-10-13T10:07:02.311Z,21.15
2022-10-13T10:12:05.458Z,17.13
2022-10-13T10:17:32.748Z,19.85
2022-10-13T10:22:44.432Z,20.05
2022-10-13T10:28:03.627Z,18.25
2022-10-13T10:33:18.936Z,19.10
2022-10-13T10:38:33.122Z,18.08
2022-10-13T10:43:50.990Z,17.33
2022-10-13T10:48:57.579Z,19.35
2022-10-13T10:54:09.748Z,18.98
2022-10-13T10:59:11.595Z,18.58
2022-10-13T11:04:38.992Z,22.05
2022-10-13T11:09:43.899Z,19.98
2022-10-13T11:15:24.293Z,19.33
2022-10-13T11:20:26.152Z,21.23
2022-10-13T11:25:35.703Z,21.83
2022-10-13T11:30:47.589Z,20.05
2022-10-13T11:35:50.780Z,20.45
2022-10-13T11:41:17.170Z,20.55
2022-10-13T11:46:36.423Z,20.88
2022-10-13T11:51:46.907Z,22.08
2022-10-13T11:56:54.674Z,24.10
2022-10-13T12:02:14.524Z,21.33
2022-10-13T12:07:22.244Z,22.58
2022-10-13T12:12:25.003Z,22.23
2022-10-13T12:17:27.487Z,23.27
2022-10-13T12:22:30.228Z,22.73
2022-10-13T12:27:42.493Z,23.02
2022-10-13T12:32:50.392Z,22.58
2022-10-13T12:37:54.016Z,23.15
2022-10-13T12:42:56.229Z,22.55
2022-10-13T12:47:58.246Z,27.52
2022-10-13T12:53:03.079Z,24.35
2022-10-13T12:58:04.895Z,25.63
2022-10-13T13:03:07.118Z,24.52
2022-10-13T13:08:31.843Z,24.63
2022-10-13T13:13:34.018Z,23.90
2022-10-13T13:18:41.625Z,28.27
2022-10-13T13:23:51.038Z,25.27
2022-10-13T13:28:57.007Z,22.90
2022-10-13T13:33:58.824Z,24.88
2022-10-13T13:39:00.664Z,22.42
2022-10-13T13:44:02.591Z,25.85
2022-10-13T13:49:04.451Z,24.40
2022-10-13T13:54:06.458Z,24.10
2022-10-13T13:59:08.281Z,25.95
2022-10-13T14:04:10.225Z,23.90
2022-10-13T14:09:11.981Z,24.77
2022-10-13T14:14:13.922Z,25.50
2022-10-13T14:19:15.685Z,25.45
2022-10-13T14:24:17.498Z,26.55
2022-10-13T14:29:19.567Z,23.20
2022-10-13T14:34:21.720Z,24.58
2022-10-13T14:39:23.485Z,28.00
2022-10-13T14:44:25.258Z,29.20
2022-10-13T14:49:27.053Z,28.80
2022-10-13T14:54:28.835Z,23.92
2022-10-13T14:59:30.784Z,24.25
2022-10-13T15:04:32.592Z,26.70
2022-10-13T15:09:45.476Z,25.45
2022-10-13T15:14:55.167Z,26.10
2022-10-13T15:19:56.935Z,25.05
2022-10-13T15:24:58.801Z,24.30
2022-10-13T15:30:00.785Z,26.02
2022-10-13T15:35:02.531Z,22.83
2022-10-13T15:40:05.399Z,23.20
2022-10-13T15:45:10.387Z,28.35
2022-10-13T15:50:12.734Z,20.58
2022-10-13T15:55:14.616Z,23.70
2022-10-13T16:00:16.736Z,21.00
2022-10-13T16:05:19.774Z,19.55
2022-10-13T16:10:21.520Z,21.60
2022-10-13T16:15:23.309Z,21.45
2022-10-13T16:20:25.305Z,22.20
2022-10-13T16:25:27.284Z,25.75
2022-10-13T16:30:30.489Z,19.17
2022-10-13T16:35:32.352Z,15.30
2022-10-13T16:40:37.207Z,18.13
2022-10-13T16:45:58.685Z,17.58
2022-10-13T16:51:06.108Z,17.85
2022-10-13T16:56:08.697Z,16.42
2022-10-13T17:01:11.538Z,20.33
2022-10-13T17:06:14.651Z,20.10
2022-10-13T17:11:22.901Z,22.80
2022-10-13T17:16:25.080Z,27.83
2022-10-13T17:21:26.848Z,24.50
2022-10-13T17:26:28.649Z,26.27
2022-10-13T17:31:30.560Z,26.40
2022-10-13T17:36:34.157Z,25.13
2022-10-13T17:41:43.709Z,24.13
2022-10-13T17:46:45.445Z,26.08
2022-10-13T17:51:51.544Z,21.88
2022-10-13T17:56:55.294Z,23.63
2022-10-13T18:01:57.090Z,21.60
2022-10-13T18:06:58.919Z,22.60
2022-10-13T18:12:00.701Z,20.73
2022-10-13T18:17:02.459Z,24.85
2022-10-13T18:22:04.214Z,20.50
2022-10-13T18:27:06.069Z,20.35
2022-10-13T18:32:10.414Z,24.33
2022-10-13T18:37:12.159Z,24.35
2022-10-13T18:42:13.923Z,24.73
2022-10-13T18:47:15.652Z,23.08
2022-10-13T18:52:17.687Z,30.13
2022-10-13T18:57:19.736Z,38.15
2022-10-13T19:02:23.075Z,32.35
2022-10-13T19:07:24.872Z,30.73
2022-10-13T19:12:27.687Z,31.65
2022-10-13T19:17:29.484Z,34.28
2022-10-13T19:22:31.262Z,35.15
2022-10-13T19:27:33.540Z,64.35
2022-10-13T19:32:35.363Z,55.33
2022-10-13T19:37:39.451Z,39.80
2022-10-13T19:42:41.339Z,39.53
2022-10-13T19:47:43.090Z,36.22
2022-10-13T19:52:44.849Z,33.42
2022-10-13T19:57:46.652Z,29.15
2022-10-13T20:02:48.386Z,29.65
2022-10-13T20:07:50.125Z,28.13
2022-10-13T20:12:51.863Z,32.78
2022-10-13T20:17:53.629Z,26.98
2022-10-13T20:22:55.580Z,28.45
2022-10-13T20:27:57.390Z,29.15
2022-10-13T20:32:59.349Z,29.95
2022-10-13T20:38:01.109Z,26.33
2022-10-13T20:43:02.997Z,31.67
2022-10-13T20:48:07.869Z,30.73
2022-10-13T20:53:09.613Z,31.20
2022-10-13T20:58:11.360Z,31.30
2022-10-13T21:03:13.079Z,29.23
2022-10-13T21:08:15.965Z,29.60
2022-10-13T21:13:17.871Z,25.65
2022-10-13T21:18:19.644Z,31.95
2022-10-13T21:23:21.387Z,29.55
2022-10-13T21:28:23.262Z,27.70
2022-10-13T21:33:27.220Z,26.27
2022-10-13T21:38:29.118Z,22.65
2022-10-13T21:43:30.894Z,25.05
2022-10-13T21:48:32.673Z,26.08
2022-10-13T21:53:34.461Z,25.02
2022-10-13T21:58:36.217Z,26.20
2022-10-13T22:03:38.114Z,22.63
2022-10-13T22:08:41.320Z,24.00
2022-10-13T22:13:48.855Z,29.67
2022-10-13T22:18:55.877Z,27.42
2022-10-13T22:24:00.181Z,27.05
2022-10-13T22:29:03.957Z,28.08
2022-10-13T22:34:06.085Z,24.77
2022-10-13T22:39:07.935Z,23.50
2022-10-13T22:44:10.496Z,23.48
2022-10-13T22:49:13.351Z,26.33
2022-10-13T22:54:14.955Z,26.33
2022-10-13T22:59:16.526Z,24.20
2022-10-13T23:04:18.061Z,29.77
2022-10-13T23:09:19.621Z,25.25
2022-10-13T23:14:21.274Z,25.40
2022-10-13T23:19:22.907Z,27.17
2022-10-13T23:24:24.537Z,24.17
2022-10-13T23:29:27.290Z,27.77
2022-10-13T23:34:29.233Z,26.50
2022-10-13T23:39:31.279Z,26.20
2022-10-13T23:44:32.815Z,25.02
2022-10-13T23:49:34.341Z,26.60
2022-10-13T23:54:35.974Z,31.00
2022-10-13T23:59:37.602Z,34.85
